sensor_id;sensor_type;location;lat;lon;timestamp;pressure;altitude;pressure_sealevel;temperature;humidity
70015;BME280;57358;51.094;6.760;2023-11-19T00:01:25;100537.03;;;10.23;100.00
70015;BME280;57358;51.094;6.760;2023-11-19T00:03:51;100650.06;;;11.01;100.00
70015;BME280;57358;51.094;6.760;2023-11-19T00:06:18;100557.91;;;10.58;100.00
70015;BME280;57358;51.094;6.760;2023-11-19T00:08:44;100619.25;;;11.05;100.00
70015;BME280;57358;51.094;6.760;2023-11-19T00:11:11;100523.91;;;10.56;100.00
70015;BME280;57358;51.094;6.760;2023-11-19T00:13:39;100587.88;;;11.02;100.00
70015;BME280;57358;51.094;6.760;2023-11-19T00:16:07;100612.88;;;10.77;100.00
70015;BME280;57358;51.094;6.760;2023-11-19T00:18:35;100639.91;;;11.11;100.00
70015;BME280;57358;51.094;6.760;2023-11-19T00:21:02;100635.09;;;11.19;100.00
70015;BME280;57358;51.094;6.760;2023-11-19T00:23:29;100618.31;;;11.06;100.00
70015;BME280;57358;51.094;6.760;2023-11-19T00:25:55;100593.97;;;11.02;100.00
70015;BME280;57358;51.094;6.760;2023-11-19T00:28:22;100623.56;;;11.22;100.00
70015;BME280;57358;51.094;6.760;2023-11-19T00:30:48;100621.28;;;11.15;100.00
70015;BME280;57358;51.094;6.760;2023-11-19T00:33:15;100624.66;;;11.17;100.00
70015;BME280;57358;51.094;6.760;2023-11-19T00:35:42;100623.81;;;11.17;100.00
70015;BME280;57358;51.094;6.760;2023-11-19T00:38:08;100432.09;;;9.91;100.00
70015;BME280;57358;51.094;6.760;2023-11-19T00:40:34;100545.13;;;10.84;100.00
70015;BME280;57358;51.094;6.760;2023-11-19T00:43:01;100593.47;;;11.11;100.00
70015;BME280;57358;51.094;6.760;2023-11-19T00:45:27;100619.53;;;11.30;100.00
70015;BME280;57358;51.094;6.760;2023-11-19T00:47:54;100628.03;;;11.35;100.00
70015;BME280;57358;51.094;6.760;2023-11-19T00:50:21;100636.16;;;11.47;100.00
70015;BME280;57358;51.094;6.760;2023-11-19T00:52:47;100612.66;;;11.44;100.00
70015;BME280;57358;51.094;6.760;2023-11-19T00:55:13;100551.09;;;11.17;100.00
70015;BME280;57358;51.094;6.760;2023-11-19T00:57:40;100512.84;;;10.97;100.00
70015;BME280;57358;51.094;6.760;2023-11-19T01:00:07;100565.06;;;11.34;100.00
70015;BME280;57358;51.094;6.760;2023-11-19T01:02:41;100490.41;;;10.92;100.00
70015;BME280;57358;51.094;6.760;2023-11-19T01:05:08;100531.25;;;11.28;100.00
70015;BME280;57358;51.094;6.760;2023-11-19T01:07:35;100589.69;;;11.77;100.00
70015;BME280;57358;51.094;6.760;2023-11-19T01:10:01;100487.94;;;11.35;100.00
70015;BME280;57358;51.094;6.760;2023-11-19T01:12:29;100499.56;;;11.31;100.00
70015;BME280;57358;51.094;6.760;2023-11-19T01:14:57;100558.91;;;11.80;100.00
70015;BME280;57358;51.094;6.760;2023-11-19T01:17:24;100546.41;;;11.69;100.00
70015;BME280;57358;51.094;6.760;2023-11-19T01:19:50;100559.22;;;11.89;100.00
70015;BME280;57358;51.094;6.760;2023-11-19T01:22:17;100549.63;;;12.03;100.00
70015;BME280;57358;51.094;6.760;2023-11-19T01:24:45;100524.34;;;11.86;100.00
70015;BME280;57358;51.094;6.760;2023-11-19T01:27:11;100525.19;;;11.86;100.00
70015;BME280;57358;51.094;6.760;2023-11-19T01:29:38;100540.16;;;12.00;100.00
70015;BME280;57358;51.094;6.760;2023-11-19T01:32:04;100536.41;;;12.04;100.00
70015;BME280;57358;51.094;6.760;2023-11-19T01:34:31;100401.03;;;11.24;100.00
70015;BME280;57358;51.094;6.760;2023-11-19T01:36:57;100534.44;;;12.08;100.00
70015;BME280;57358;51.094;6.760;2023-11-19T01:39:24;100533.69;;;12.06;100.00
70015;BME280;57358;51.094;6.760;2023-11-19T01:41:50;100457.94;;;11.53;100.00
70015;BME280;57358;51.094;6.760;2023-11-19T01:44:16;100474.09;;;11.76;100.00
70015;BME280;57358;51.094;6.760;2023-11-19T01:46:45;100455.69;;;11.62;100.00
70015;BME280;57358;51.094;6.760;2023-11-19T01:49:17;100518.47;;;12.11;100.00
70015;BME280;57358;51.094;6.760;2023-11-19T01:51:45;100422.06;;;11.52;100.00
70015;BME280;57358;51.094;6.760;2023-11-19T01:54:14;100482.59;;;11.95;100.00
70015;BME280;57358;51.094;6.760;2023-11-19T01:56:42;100497.03;;;12.03;100.00
70015;BME280;57358;51.094;6.760;2023-11-19T01:59:09;100502.22;;;12.04;100.00
70015;BME280;57358;51.094;6.760;2023-11-19T02:01:37;100508.31;;;12.19;100.00
70015;BME280;57358;51.094;6.760;2023-11-19T02:04:07;100445.09;;;11.77;100.00
70015;BME280;57358;51.094;6.760;2023-11-19T02:06:37;100461.00;;;12.05;100.00
70015;BME280;57358;51.094;6.760;2023-11-19T02:09:06;100448.31;;;11.97;100.00
70015;BME280;57358;51.094;6.760;2023-11-19T02:11:34;100439.38;;;12.00;100.00
70015;BME280;57358;51.094;6.760;2023-11-19T02:14:01;100364.34;;;11.65;100.00
70015;BME280;57358;51.094;6.760;2023-11-19T02:16:29;100412.41;;;11.96;100.00
70015;BME280;57358;51.094;6.760;2023-11-19T02:18:56;100459.63;;;12.26;100.00
70015;BME280;57358;51.094;6.760;2023-11-19T02:21:22;100456.81;;;12.29;100.00
70015;BME280;57358;51.094;6.760;2023-11-19T02:23:49;100423.50;;;12.01;100.00
70015;BME280;57358;51.094;6.760;2023-11-19T02:26:29;100376.66;;;11.93;100.00
70015;BME280;57358;51.094;6.760;2023-11-19T02:28:59;100365.38;;;11.77;100.00
70015;BME280;57358;51.094;6.760;2023-11-19T02:31:26;100382.56;;;11.97;100.00
70015;BME280;57358;51.094;6.760;2023-11-19T02:33:53;100431.03;;;12.34;100.00
70015;BME280;57358;51.094;6.760;2023-11-19T02:36:21;100395.59;;;12.13;100.00
70015;BME280;57358;51.094;6.760;2023-11-19T02:38:48;100386.78;;;12.00;100.00
70015;BME280;57358;51.094;6.760;2023-11-19T02:41:14;100403.00;;;12.06;100.00
70015;BME280;57358;51.094;6.760;2023-11-19T02:43:41;100353.91;;;11.78;100.00
70015;BME280;57358;51.094;6.760;2023-11-19T02:46:07;100421.25;;;12.09;100.00
70015;BME280;57358;51.094;6.760;2023-11-19T02:48:37;100405.84;;;12.03;100.00
70015;BME280;57358;51.094;6.760;2023-11-19T02:51:04;100329.34;;;11.50;100.00
70015;BME280;57358;51.094;6.760;2023-11-19T02:53:31;100321.19;;;11.41;100.00
70015;BME280;57358;51.094;6.760;2023-11-19T02:55:58;100392.88;;;12.00;100.00
70015;BME280;57358;51.094;6.760;2023-11-19T02:58:32;100405.81;;;12.17;100.00
70015;BME280;57358;51.094;6.760;2023-11-19T03:01:00;100367.06;;;11.78;100.00
70015;BME280;57358;51.094;6.760;2023-11-19T03:03:36;100394.53;;;12.15;100.00
70015;BME280;57358;51.094;6.760;2023-11-19T03:06:07;100343.22;;;11.81;100.00
70015;BME280;57358;51.094;6.760;2023-11-19T03:08:35;100378.00;;;12.13;100.00
70015;BME280;57358;51.094;6.760;2023-11-19T03:11:02;100306.53;;;11.65;100.00
70015;BME280;57358;51.094;6.760;2023-11-19T03:13:29;99690.94;;;7.81;100.00
70015;BME280;57358;51.094;6.760;2023-11-19T03:15:55;100268.38;;;11.72;100.00
70015;BME280;57358;51.094;6.760;2023-11-19T03:18:22;100332.47;;;12.13;100.00
70015;BME280;57358;51.094;6.760;2023-11-19T03:20:49;100328.41;;;12.34;100.00
70015;BME280;57358;51.094;6.760;2023-11-19T03:23:16;100300.84;;;12.27;100.00
70015;BME280;57358;51.094;6.760;2023-11-19T03:25:42;100306.84;;;12.29;100.00
70015;BME280;57358;51.094;6.760;2023-11-19T03:28:10;100266.16;;;12.08;100.00
70015;BME280;57358;51.094;6.760;2023-11-19T03:30:37;100311.59;;;12.37;100.00
70015;BME280;57358;51.094;6.760;2023-11-19T03:33:04;100215.78;;;11.87;100.00
70015;BME280;57358;51.094;6.760;2023-11-19T03:35:31;100301.69;;;12.41;100.00
70015;BME280;57358;51.094;6.760;2023-11-19T03:37:57;100285.16;;;12.38;100.00
70015;BME280;57358;51.094;6.760;2023-11-19T03:40:23;100284.75;;;12.45;100.00
70015;BME280;57358;51.094;6.760;2023-11-19T03:42:51;100282.94;;;12.32;100.00
70015;BME280;57358;51.094;6.760;2023-11-19T03:45:18;100178.84;;;11.88;100.00
70015;BME280;57358;51.094;6.760;2023-11-19T03:47:44;100231.59;;;12.40;100.00
70015;BME280;57358;51.094;6.760;2023-11-19T03:50:10;100157.56;;;12.06;100.00
70015;BME280;57358;51.094;6.760;2023-11-19T03:52:37;100143.16;;;12.24;100.00
70015;BME280;57358;51.094;6.760;2023-11-19T03:55:07;100126.00;;;12.18;100.00
70015;BME280;57358;51.094;6.760;2023-11-19T03:57:35;100186.34;;;12.60;100.00
70015;BME280;57358;51.094;6.760;2023-11-19T04:00:02;100102.34;;;11.93;100.00
70015;BME280;57358;51.094;6.760;2023-11-19T04:02:36;100165.47;;;12.18;100.00
70015;BME280;57358;51.094;6.760;2023-11-19T04:05:03;100156.09;;;12.02;100.00
70015;BME280;57358;51.094;6.760;2023-11-19T04:07:31;100206.72;;;12.18;100.00
70015;BME280;57358;51.094;6.760;2023-11-19T04:09:58;100207.53;;;12.06;100.00
70015;BME280;57358;51.094;6.760;2023-11-19T04:12:27;100160.97;;;11.53;100.00
70015;BME280;57358;51.094;6.760;2023-11-19T04:14:53;100155.78;;;11.39;100.00
70015;BME280;57358;51.094;6.760;2023-11-19T04:17:22;100228.84;;;11.74;100.00
70015;BME280;57358;51.094;6.760;2023-11-19T04:19:49;100198.34;;;11.44;100.00
70015;BME280;57358;51.094;6.760;2023-11-19T04:22:16;100263.50;;;11.66;100.00
70015;BME280;57358;51.094;6.760;2023-11-19T04:24:43;100227.25;;;11.44;100.00
70015;BME280;57358;51.094;6.760;2023-11-19T04:27:11;100249.28;;;11.56;100.00
70015;BME280;57358;51.094;6.760;2023-11-19T04:29:38;100221.63;;;11.36;100.00
70015;BME280;57358;51.094;6.760;2023-11-19T04:32:05;100237.56;;;11.47;100.00
70015;BME280;57358;51.094;6.760;2023-11-19T04:34:31;100289.00;;;11.78;100.00
70015;BME280;57358;51.094;6.760;2023-11-19T04:36:58;100278.50;;;11.78;100.00
70015;BME280;57358;51.094;6.760;2023-11-19T04:39:38;100290.22;;;11.87;100.00
70015;BME280;57358;51.094;6.760;2023-11-19T04:42:05;100172.72;;;11.21;100.00
70015;BME280;57358;51.094;6.760;2023-11-19T04:44:33;100270.88;;;11.88;100.00
70015;BME280;57358;51.094;6.760;2023-11-19T04:46:59;100217.81;;;11.54;100.00
70015;BME280;57358;51.094;6.760;2023-11-19T04:49:26;100196.28;;;11.49;100.00
70015;BME280;57358;51.094;6.760;2023-11-19T04:51:53;100175.75;;;11.42;100.00
70015;BME280;57358;51.094;6.760;2023-11-19T04:54:20;100179.84;;;11.46;100.00
70015;BME280;57358;51.094;6.760;2023-11-19T04:56:46;100131.81;;;11.16;100.00
70015;BME280;57358;51.094;6.760;2023-11-19T04:59:13;100211.19;;;11.76;100.00
70015;BME280;57358;51.094;6.760;2023-11-19T05:01:40;100173.56;;;11.48;100.00
70015;BME280;57358;51.094;6.760;2023-11-19T05:04:07;100167.84;;;11.42;100.00
70015;BME280;57358;51.094;6.760;2023-11-19T05:06:34;100143.22;;;11.30;100.00
70015;BME280;57358;51.094;6.760;2023-11-19T05:09:01;100218.50;;;11.85;100.00
70015;BME280;57358;51.094;6.760;2023-11-19T05:11:32;100198.31;;;11.86;100.00
70015;BME280;57358;51.094;6.760;2023-11-19T05:13:58;100088.91;;;11.03;100.00
70015;BME280;57358;51.094;6.760;2023-11-19T05:16:25;100214.66;;;11.76;100.00
70015;BME280;57358;51.094;6.760;2023-11-19T05:18:51;100217.59;;;11.72;100.00
70015;BME280;57358;51.094;6.760;2023-11-19T05:21:18;100141.69;;;11.40;100.00
70015;BME280;57358;51.094;6.760;2023-11-19T05:23:44;100190.47;;;11.98;100.00
70015;BME280;57358;51.094;6.760;2023-11-19T05:26:17;100148.66;;;11.81;100.00
70015;BME280;57358;51.094;6.760;2023-11-19T05:28:44;100023.69;;;11.10;100.00
70015;BME280;57358;51.094;6.760;2023-11-19T05:31:11;100051.59;;;11.25;100.00
70015;BME280;57358;51.094;6.760;2023-11-19T05:33:37;100045.75;;;11.07;100.00
70015;BME280;57358;51.094;6.760;2023-11-19T05:36:05;100141.34;;;11.59;100.00
70015;BME280;57358;51.094;6.760;2023-11-19T05:38:31;100125.91;;;11.40;100.00
70015;BME280;57358;51.094;6.760;2023-11-19T05:40:58;100111.38;;;11.34;100.00
70015;BME280;57358;51.094;6.760;2023-11-19T05:43:24;100033.91;;;10.87;100.00
70015;BME280;57358;51.094;6.760;2023-11-19T05:45:51;99941.41;;;10.28;100.00
70015;BME280;57358;51.094;6.760;2023-11-19T05:48:17;99932.75;;;10.13;100.00
70015;BME280;57358;51.094;6.760;2023-11-19T05:50:46;100154.56;;;11.57;100.00
70015;BME280;57358;51.094;6.760;2023-11-19T05:53:15;100151.13;;;11.70;100.00
70015;BME280;57358;51.094;6.760;2023-11-19T05:55:42;100132.97;;;11.67;100.00
70015;BME280;57358;51.094;6.760;2023-11-19T05:58:25;100121.81;;;11.63;100.00
70015;BME280;57358;51.094;6.760;2023-11-19T06:00:52;100118.75;;;11.69;100.00
70015;BME280;57358;51.094;6.760;2023-11-19T06:03:19;100016.78;;;11.22;100.00
70015;BME280;57358;51.094;6.760;2023-11-19T06:05:46;99876.63;;;10.30;100.00
70015;BME280;57358;51.094;6.760;2023-11-19T06:08:13;100046.75;;;11.32;100.00
70015;BME280;57358;51.094;6.760;2023-11-19T06:10:41;99958.91;;;10.83;100.00
70015;BME280;57358;51.094;6.760;2023-11-19T06:13:07;100084.25;;;11.61;100.00
70015;BME280;57358;51.094;6.760;2023-11-19T06:15:36;100008.03;;;11.08;100.00
70015;BME280;57358;51.094;6.760;2023-11-19T06:18:03;100090.91;;;11.67;100.00
70015;BME280;57358;51.094;6.760;2023-11-19T06:20:30;100079.91;;;11.47;100.00
70015;BME280;57358;51.094;6.760;2023-11-19T06:23:09;100089.69;;;11.45;100.00
70015;BME280;57358;51.094;6.760;2023-11-19T06:25:35;100021.31;;;10.92;100.00
70015;BME280;57358;51.094;6.760;2023-11-19T06:28:02;100136.03;;;11.46;100.00
70015;BME280;57358;51.094;6.760;2023-11-19T06:30:29;100002.78;;;10.81;100.00
70015;BME280;57358;51.094;6.760;2023-11-19T06:32:57;100132.63;;;11.31;100.00
70015;BME280;57358;51.094;6.760;2023-11-19T06:35:24;100059.72;;;10.81;100.00
70015;BME280;57358;51.094;6.760;2023-11-19T06:37:50;100078.44;;;10.89;100.00
70015;BME280;57358;51.094;6.760;2023-11-19T06:40:16;100126.28;;;11.21;100.00
70015;BME280;57358;51.094;6.760;2023-11-19T06:42:43;99917.41;;;10.07;100.00
70015;BME280;57358;51.094;6.760;2023-11-19T06:45:09;100015.31;;;10.63;100.00
70015;BME280;57358;51.094;6.760;2023-11-19T06:47:36;100109.69;;;11.21;100.00
70015;BME280;57358;51.094;6.760;2023-11-19T06:50:05;100099.59;;;11.27;100.00
70015;BME280;57358;51.094;6.760;2023-11-19T06:52:32;100079.44;;;11.28;100.00
70015;BME280;57358;51.094;6.760;2023-11-19T06:54:58;100062.41;;;11.21;100.00
70015;BME280;57358;51.094;6.760;2023-11-19T06:57:28;100060.22;;;11.27;100.00
70015;BME280;57358;51.094;6.760;2023-11-19T06:59:55;99887.88;;;10.32;100.00
70015;BME280;57358;51.094;6.760;2023-11-19T07:02:22;100005.53;;;11.20;100.00
70015;BME280;57358;51.094;6.760;2023-11-19T07:04:51;99941.31;;;10.98;100.00
70015;BME280;57358;51.094;6.760;2023-11-19T07:07:18;99973.38;;;11.03;100.00
70015;BME280;57358;51.094;6.760;2023-11-19T07:09:44;99997.78;;;10.91;100.00
70015;BME280;57358;51.094;6.760;2023-11-19T07:12:11;99948.28;;;10.45;100.00
70015;BME280;57358;51.094;6.760;2023-11-19T07:14:40;100058.50;;;11.26;100.00
70015;BME280;57358;51.094;6.760;2023-11-19T07:17:08;100005.22;;;11.11;100.00
70015;BME280;57358;51.094;6.760;2023-11-19T07:19:37;100028.59;;;11.42;100.00
70015;BME280;57358;51.094;6.760;2023-11-19T07:22:05;100000.66;;;11.41;100.00
70015;BME280;57358;51.094;6.760;2023-11-19T07:24:32;99975.19;;;11.28;100.00
70015;BME280;57358;51.094;6.760;2023-11-19T07:26:59;99903.22;;;10.65;100.00
70015;BME280;57358;51.094;6.760;2023-11-19T07:29:25;99937.38;;;10.78;100.00
70015;BME280;57358;51.094;6.760;2023-11-19T07:31:55;99957.03;;;10.85;100.00
70015;BME280;57358;51.094;6.760;2023-11-19T07:34:24;99996.78;;;11.06;100.00
70015;BME280;57358;51.094;6.760;2023-11-19T07:36:50;99989.38;;;10.86;100.00
70015;BME280;57358;51.094;6.760;2023-11-19T07:39:17;100048.06;;;11.39;100.00
70015;BME280;57358;51.094;6.760;2023-11-19T07:41:43;100043.22;;;11.46;100.00
70015;BME280;57358;51.094;6.760;2023-11-19T07:44:10;100015.34;;;11.30;100.00
70015;BME280;57358;51.094;6.760;2023-11-19T07:46:37;100029.44;;;11.42;100.00
70015;BME280;57358;51.094;6.760;2023-11-19T07:49:04;100024.84;;;11.46;100.00
70015;BME280;57358;51.094;6.760;2023-11-19T07:51:30;99988.38;;;11.01;100.00
70015;BME280;57358;51.094;6.760;2023-11-19T07:53:56;100053.41;;;11.37;100.00
70015;BME280;57358;51.094;6.760;2023-11-19T07:56:23;99999.94;;;10.98;100.00
70015;BME280;57358;51.094;6.760;2023-11-19T07:58:49;100042.22;;;11.21;100.00
70015;BME280;57358;51.094;6.760;2023-11-19T08:01:16;99993.22;;;11.07;100.00
70015;BME280;57358;51.094;6.760;2023-11-19T08:03:42;100005.84;;;11.15;100.00
70015;BME280;57358;51.094;6.760;2023-11-19T08:06:24;100024.00;;;11.45;100.00
70015;BME280;57358;51.094;6.760;2023-11-19T08:08:51;99858.94;;;10.33;100.00
70015;BME280;57358;51.094;6.760;2023-11-19T08:11:18;100073.41;;;11.53;100.00
70015;BME280;57358;51.094;6.760;2023-11-19T08:13:46;100091.41;;;11.59;100.00
70015;BME280;57358;51.094;6.760;2023-11-19T08:16:12;100021.72;;;11.13;100.00
70015;BME280;57358;51.094;6.760;2023-11-19T08:18:43;100017.59;;;11.09;100.00
70015;BME280;57358;51.094;6.760;2023-11-19T08:21:10;99982.47;;;10.70;100.00
70015;BME280;57358;51.094;6.760;2023-11-19T08:23:36;100098.56;;;11.57;100.00
70015;BME280;57358;51.094;6.760;2023-11-19T08:26:04;100061.72;;;11.44;100.00
70015;BME280;57358;51.094;6.760;2023-11-19T08:28:31;100091.66;;;11.82;100.00
70015;BME280;57358;51.094;6.760;2023-11-19T08:30:57;100035.34;;;11.58;100.00
70015;BME280;57358;51.094;6.760;2023-11-19T08:33:26;100062.81;;;11.67;100.00
70015;BME280;57358;51.094;6.760;2023-11-19T08:35:52;100089.44;;;11.88;100.00
70015;BME280;57358;51.094;6.760;2023-11-19T08:38:18;100076.78;;;11.95;100.00
70015;BME280;57358;51.094;6.760;2023-11-19T08:40:48;100071.28;;;11.98;100.00
70015;BME280;57358;51.094;6.760;2023-11-19T08:43:14;100043.19;;;11.86;100.00
70015;BME280;57358;51.094;6.760;2023-11-19T08:45:42;100011.41;;;11.76;100.00
70015;BME280;57358;51.094;6.760;2023-11-19T08:48:08;100013.53;;;11.84;100.00
70015;BME280;57358;51.094;6.760;2023-11-19T08:50:35;99943.78;;;11.52;100.00
70015;BME280;57358;51.094;6.760;2023-11-19T08:53:01;99982.81;;;11.84;100.00
70015;BME280;57358;51.094;6.760;2023-11-19T08:55:28;100021.75;;;12.17;100.00
70015;BME280;57358;51.094;6.760;2023-11-19T08:57:54;100005.03;;;12.06;100.00
70015;BME280;57358;51.094;6.760;2023-11-19T09:00:21;99981.25;;;11.82;100.00
70015;BME280;57358;51.094;6.760;2023-11-19T09:02:47;99957.47;;;11.83;100.00
70015;BME280;57358;51.094;6.760;2023-11-19T09:05:14;100025.88;;;12.09;100.00
70015;BME280;57358;51.094;6.760;2023-11-19T09:07:40;100031.63;;;12.14;100.00
70015;BME280;57358;51.094;6.760;2023-11-19T09:10:07;99834.53;;;10.98;100.00
70015;BME280;57358;51.094;6.760;2023-11-19T09:12:35;99930.44;;;11.68;100.00
70015;BME280;57358;51.094;6.760;2023-11-19T09:15:01;99938.63;;;11.76;100.00
70015;BME280;57358;51.094;6.760;2023-11-19T09:17:27;99974.50;;;12.16;100.00
70015;BME280;57358;51.094;6.760;2023-11-19T09:19:54;99990.81;;;12.21;100.00
70015;BME280;57358;51.094;6.760;2023-11-19T09:22:21;99998.78;;;12.32;100.00
70015;BME280;57358;51.094;6.760;2023-11-19T09:24:47;99963.41;;;12.36;100.00
70015;BME280;57358;51.094;6.760;2023-11-19T09:27:14;99899.53;;;11.97;100.00
70015;BME280;57358;51.094;6.760;2023-11-19T09:29:41;99940.53;;;12.50;100.00
70015;BME280;57358;51.094;6.760;2023-11-19T09:32:07;99836.88;;;11.91;100.00
70015;BME280;57358;51.094;6.760;2023-11-19T09:34:34;99950.84;;;12.53;100.00
70015;BME280;57358;51.094;6.760;2023-11-19T09:37:00;99975.25;;;12.55;100.00
70015;BME280;57358;51.094;6.760;2023-11-19T09:39:27;99884.97;;;12.17;100.00
70015;BME280;57358;51.094;6.760;2023-11-19T09:41:54;99915.31;;;12.34;100.00
70015;BME280;57358;51.094;6.760;2023-11-19T09:44:20;99954.75;;;12.47;100.00
70015;BME280;57358;51.094;6.760;2023-11-19T09:46:47;99916.09;;;12.48;100.00
70015;BME280;57358;51.094;6.760;2023-11-19T09:49:17;99847.63;;;12.12;100.00
70015;BME280;57358;51.094;6.760;2023-11-19T09:52:01;99923.34;;;12.57;100.00
70015;BME280;57358;51.094;6.760;2023-11-19T09:54:28;99933.28;;;12.65;100.00
70015;BME280;57358;51.094;6.760;2023-11-19T09:56:57;99924.84;;;12.48;100.00
70015;BME280;57358;51.094;6.760;2023-11-19T09:59:32;99941.19;;;12.89;100.00
70015;BME280;57358;51.094;6.760;2023-11-19T10:01:59;99854.06;;;12.56;100.00
70015;BME280;57358;51.094;6.760;2023-11-19T10:04:29;99875.34;;;12.89;100.00
70015;BME280;57358;51.094;6.760;2023-11-19T10:06:56;99889.59;;;13.33;100.00
70015;BME280;57358;51.094;6.760;2023-11-19T10:09:23;99845.56;;;13.11;100.00
70015;BME280;57358;51.094;6.760;2023-11-19T10:11:50;99887.13;;;13.54;100.00
70015;BME280;57358;51.094;6.760;2023-11-19T10:14:19;99802.72;;;13.20;100.00
70015;BME280;57358;51.094;6.760;2023-11-19T10:16:48;99865.19;;;13.42;100.00
70015;BME280;57358;51.094;6.760;2023-11-19T10:19:19;99859.34;;;13.61;100.00
70015;BME280;57358;51.094;6.760;2023-11-19T10:21:49;99873.09;;;13.53;100.00
70015;BME280;57358;51.094;6.760;2023-11-19T10:24:15;99891.19;;;13.58;100.00
70015;BME280;57358;51.094;6.760;2023-11-19T10:26:44;99859.19;;;13.40;100.00
70015;BME280;57358;51.094;6.760;2023-11-19T10:29:13;99852.03;;;13.53;100.00
70015;BME280;57358;51.094;6.760;2023-11-19T10:31:40;99883.91;;;13.62;100.00
70015;BME280;57358;51.094;6.760;2023-11-19T10:34:24;99802.28;;;13.15;100.00
70015;BME280;57358;51.094;6.760;2023-11-19T10:36:51;99747.16;;;13.12;98.99
70015;BME280;57358;51.094;6.760;2023-11-19T10:39:17;99829.13;;;13.65;99.00
70015;BME280;57358;51.094;6.760;2023-11-19T10:41:44;99816.91;;;13.64;99.24
70015;BME280;57358;51.094;6.760;2023-11-19T10:44:10;99795.31;;;13.82;96.98
70015;BME280;57358;51.094;6.760;2023-11-19T10:46:41;99785.91;;;13.89;96.50
70015;BME280;57358;51.094;6.760;2023-11-19T10:49:08;99714.50;;;13.37;95.93
70015;BME280;57358;51.094;6.760;2023-11-19T10:51:35;99667.94;;;13.59;93.55
70015;BME280;57358;51.094;6.760;2023-11-19T10:54:04;99735.84;;;13.77;94.31
70015;BME280;57358;51.094;6.760;2023-11-19T10:56:34;99735.06;;;13.54;95.58
70015;BME280;57358;51.094;6.760;2023-11-19T10:59:01;99680.78;;;13.63;92.96
70015;BME280;57358;51.094;6.760;2023-11-19T11:01:38;99656.47;;;13.48;92.48
70015;BME280;57358;51.094;6.760;2023-11-19T11:04:13;99639.06;;;13.13;94.21
70015;BME280;57358;51.094;6.760;2023-11-19T11:06:41;99746.03;;;13.71;93.87
70015;BME280;57358;51.094;6.760;2023-11-19T11:09:08;99721.88;;;13.66;92.54
70015;BME280;57358;51.094;6.760;2023-11-19T11:11:40;99672.13;;;12.95;93.80
70015;BME280;57358;51.094;6.760;2023-11-19T11:14:07;99773.50;;;13.12;96.57
70015;BME280;57358;51.094;6.760;2023-11-19T11:16:36;99740.09;;;12.90;97.08
70015;BME280;57358;51.094;6.760;2023-11-19T11:19:04;99799.00;;;13.23;97.32
70015;BME280;57358;51.094;6.760;2023-11-19T11:21:31;99808.94;;;13.87;95.31
70015;BME280;57358;51.094;6.760;2023-11-19T11:24:06;99802.81;;;13.98;93.44
70015;BME280;57358;51.094;6.760;2023-11-19T11:29:53;99816.78;;;14.21;93.68
70015;BME280;57358;51.094;6.760;2023-11-19T11:32:35;99787.72;;;14.32;92.39
70015;BME280;57358;51.094;6.760;2023-11-19T11:37:50;99683.00;;;14.00;90.81
70015;BME280;57358;51.094;6.760;2023-11-19T11:40:19;99772.47;;;14.35;91.89
70015;BME280;57358;51.094;6.760;2023-11-19T11:42:48;99748.13;;;14.53;89.71
70015;BME280;57358;51.094;6.760;2023-11-19T11:45:15;99688.69;;;14.16;90.11
70015;BME280;57358;51.094;6.760;2023-11-19T11:50:10;99661.59;;;14.35;86.80
70015;BME280;57358;51.094;6.760;2023-11-19T11:55:27;99653.34;;;14.50;86.10
70015;BME280;57358;51.094;6.760;2023-11-19T11:57:57;99646.84;;;14.33;84.72
70015;BME280;57358;51.094;6.760;2023-11-19T12:00:30;99684.59;;;14.24;86.26
70015;BME280;57358;51.094;6.760;2023-11-19T12:03:00;99761.56;;;14.29;87.74
70015;BME280;57358;51.094;6.760;2023-11-19T12:05:29;99688.88;;;14.04;87.32
70015;BME280;57358;51.094;6.760;2023-11-19T12:07:57;99632.22;;;13.66;87.30
70015;BME280;57358;51.094;6.760;2023-11-19T12:10:29;99759.50;;;14.32;87.81
70015;BME280;57358;51.094;6.760;2023-11-19T12:12:59;99767.00;;;14.16;88.73
70015;BME280;57358;51.094;6.760;2023-11-19T12:15:27;99781.09;;;14.05;89.98
70015;BME280;57358;51.094;6.760;2023-11-19T12:17:54;99785.81;;;14.23;88.90
70015;BME280;57358;51.094;6.760;2023-11-19T12:20:22;99762.44;;;14.18;88.97
70015;BME280;57358;51.094;6.760;2023-11-19T12:22:53;99782.41;;;14.64;87.91
70015;BME280;57358;51.094;6.760;2023-11-19T12:25:20;99728.78;;;14.64;85.82
70015;BME280;57358;51.094;6.760;2023-11-19T12:27:47;99728.16;;;14.39;86.85
70015;BME280;57358;51.094;6.760;2023-11-19T12:30:32;99710.84;;;14.46;85.46
70015;BME280;57358;51.094;6.760;2023-11-19T12:32:59;99484.66;;;12.46;87.64
70015;BME280;57358;51.094;6.760;2023-11-19T12:35:25;99804.56;;;14.20;88.85
70015;BME280;57358;51.094;6.760;2023-11-19T12:37:52;99726.19;;;13.55;89.46
70015;BME280;57358;51.094;6.760;2023-11-19T12:40:24;99792.94;;;13.67;90.61
70015;BME280;57358;51.094;6.760;2023-11-19T12:42:52;99841.94;;;13.81;92.25
70015;BME280;57358;51.094;6.760;2023-11-19T12:45:20;99834.78;;;13.49;93.63
70015;BME280;57358;51.094;6.760;2023-11-19T12:47:47;99821.09;;;13.33;94.54
70015;BME280;57358;51.094;6.760;2023-11-19T12:50:16;99810.88;;;13.28;94.59
70015;BME280;57358;51.094;6.760;2023-11-19T12:52:56;99795.00;;;13.30;95.02
70015;BME280;57358;51.094;6.760;2023-11-19T12:55:27;99828.06;;;13.45;94.70
70015;BME280;57358;51.094;6.760;2023-11-19T12:57:56;99918.75;;;14.22;94.05
70015;BME280;57358;51.094;6.760;2023-11-19T13:00:26;99876.69;;;14.41;91.49